Terminal Aerodrome Forecast
Issued by NWS

Home | Current Version | Previous Version | Text Only | Print | Product List | Glossary On
Versions: 1 2 3 4 5 6 7 8 9 10 11 12 13 14 15 16 17
000
FTUS42 KMLB 061242 AAA
TAFFPR
TAF AMD
KFPR 061242Z 0613/0712 35004KT 5SM BR BKN015 OVC030
      TEMPO 0613/0615 SCT005 BKN010
     FM061600 02008KT P6SM SCT007 BKN015
     FM062300 36010KT P6SM SCT007 OVC015=

USA.gov is the U.S. government's official web portal to all federal, state and local government web resources and services.